<?xml version="1.0" encoding="UTF-8" standalone="no" ?>
<gpx xmlns="http://www.topografix.com/GPX/1/1" xmlns:xsi="http://www.w3.org/2001/XMLSchema-instance" xsi:schemaLocation="http://www.topografix.com/GPX/1/1 http://www.topografix.com/GPX/1/1/gpx.xsd" version="1.1" creator="VisuGPX - https://www.visugpx.com">
  <metadata>
    <name>Montagne Ste Victoire - Croix de Provence</name>
    <desc><![CDATA[2/3/2014
Départ Barrage du Bimont, par sentier Imouche. Retour par refuge Cesane]]></desc>
  </metadata>
  <trk>
    <name><![CDATA[2014-03-02 11:24]]></name>
    <desc><![CDATA[<h1>OruxMaps</h1><br /><hr align="center" width="480" style="height: 2px; width: 517px"/><h2>Nom: 2014-03-02 11:24</h2><br /><p>Temps de départ: 03/02/2014 11:24</p><p>Temps d'arrivée: 03/02/2014 16:59</p><p>Distance: 0 km (00:00)</p><p>Temps déplacement: 00:00</p><p>Vitesse moyenne: 0 km/h</p><p>Vitesse moyenne: 0 km/h</p><p>Vitess Max.: 0 km/h</p><p>Gain Altitude: 0 m</p><p>Perte Altitude: 0 m</p><p>Temps d'élévation: 00:00</p><p>Temps de descente: 00:00</p><hr align="center" width="480" style="height: 2px; width: 517px"/>]]></desc>
    <trkseg>
      <trkpt lat="43.54077" lon="5.53116">
        <ele>411.49</ele>
        <time>2014-03-02T10:24:20Z</time>
      </trkpt>
      <trkpt lat="43.54083" lon="5.53092">
        <ele>411.27</ele>
        <time>2014-03-02T10:27:54Z</time>
      </trkpt>
      <trkpt lat="43.54093" lon="5.53072">
        <ele>410</ele>
        <time>2014-03-02T10:28:08Z</time>
      </trkpt>
      <trkpt lat="43.53938" lon="5.53631">
        <ele>389.43</ele>
        <time>2014-03-02T10:47:10Z</time>
      </trkpt>
      <trkpt lat="43.53938" lon="5.53657">
        <ele>400.99</ele>
        <time>2014-03-02T10:48:48Z</time>
      </trkpt>
      <trkpt lat="43.53931" lon="5.53681">
        <ele>402.82</ele>
        <time>2014-03-02T10:49:14Z</time>
      </trkpt>
      <trkpt lat="43.53919" lon="5.537">
        <ele>403.88</ele>
        <time>2014-03-02T10:49:47Z</time>
      </trkpt>
      <trkpt lat="43.53906" lon="5.53719">
        <ele>403.78</ele>
        <time>2014-03-02T10:50:05Z</time>
      </trkpt>
      <trkpt lat="43.53897" lon="5.53741">
        <ele>404.81</ele>
        <time>2014-03-02T10:50:20Z</time>
      </trkpt>
      <trkpt lat="43.53882" lon="5.53757">
        <ele>406.94</ele>
        <time>2014-03-02T10:50:41Z</time>
      </trkpt>
      <trkpt lat="43.53868" lon="5.53775">
        <ele>409.43</ele>
        <time>2014-03-02T10:51:00Z</time>
      </trkpt>
      <trkpt lat="43.53857" lon="5.53796">
        <ele>411.49</ele>
        <time>2014-03-02T10:51:15Z</time>
      </trkpt>
      <trkpt lat="43.53842" lon="5.53811">
        <ele>413.14</ele>
        <time>2014-03-02T10:51:35Z</time>
      </trkpt>
      <trkpt lat="43.53831" lon="5.53831">
        <ele>414.39</ele>
        <time>2014-03-02T10:51:54Z</time>
      </trkpt>
      <trkpt lat="43.53818" lon="5.53848">
        <ele>415.14</ele>
        <time>2014-03-02T10:52:11Z</time>
      </trkpt>
      <trkpt lat="43.53804" lon="5.53866">
        <ele>415.59</ele>
        <time>2014-03-02T10:52:28Z</time>
      </trkpt>
      <trkpt lat="43.538" lon="5.53892">
        <ele>415.55</ele>
        <time>2014-03-02T10:52:46Z</time>
      </trkpt>
      <trkpt lat="43.53792" lon="5.53914">
        <ele>415.37</ele>
        <time>2014-03-02T10:53:06Z</time>
      </trkpt>
      <trkpt lat="43.53778" lon="5.53931">
        <ele>415.38</ele>
        <time>2014-03-02T10:53:22Z</time>
      </trkpt>
      <trkpt lat="43.53766" lon="5.53951">
        <ele>416.82</ele>
        <time>2014-03-02T10:53:39Z</time>
      </trkpt>
      <trkpt lat="43.53753" lon="5.5397">
        <ele>418.06</ele>
        <time>2014-03-02T10:53:52Z</time>
      </trkpt>
      <trkpt lat="43.53738" lon="5.53986">
        <ele>419.97</ele>
        <time>2014-03-02T10:54:11Z</time>
      </trkpt>
      <trkpt lat="43.53723" lon="5.53999">
        <ele>420.24</ele>
        <time>2014-03-02T10:54:27Z</time>
      </trkpt>
      <trkpt lat="43.53712" lon="5.54019">
        <ele>420.39</ele>
        <time>2014-03-02T10:54:46Z</time>
      </trkpt>
      <trkpt lat="43.5371" lon="5.54043">
        <ele>420.73</ele>
        <time>2014-03-02T10:55:02Z</time>
      </trkpt>
      <trkpt lat="43.53705" lon="5.54068">
        <ele>421.31</ele>
        <time>2014-03-02T10:55:17Z</time>
      </trkpt>
      <trkpt lat="43.53705" lon="5.54094">
        <ele>422.23</ele>
        <time>2014-03-02T10:56:11Z</time>
      </trkpt>
      <trkpt lat="43.53693" lon="5.54112">
        <ele>419.75</ele>
        <time>2014-03-02T10:56:38Z</time>
      </trkpt>
      <trkpt lat="43.53682" lon="5.54132">
        <ele>417.09</ele>
        <time>2014-03-02T10:56:55Z</time>
      </trkpt>
      <trkpt lat="43.53671" lon="5.54152">
        <ele>414.14</ele>
        <time>2014-03-02T10:57:18Z</time>
      </trkpt>
      <trkpt lat="43.53661" lon="5.54174">
        <ele>411.78</ele>
        <time>2014-03-02T10:57:37Z</time>
      </trkpt>
      <trkpt lat="43.53665" lon="5.54201">
        <ele>408.95</ele>
        <time>2014-03-02T10:57:55Z</time>
      </trkpt>
      <trkpt lat="43.53669" lon="5.54225">
        <ele>407.5</ele>
        <time>2014-03-02T10:58:07Z</time>
      </trkpt>
      <trkpt lat="43.53672" lon="5.54249">
        <ele>407</ele>
        <time>2014-03-02T10:58:32Z</time>
      </trkpt>
      <trkpt lat="43.53673" lon="5.54276">
        <ele>405.38</ele>
        <time>2014-03-02T10:58:48Z</time>
      </trkpt>
      <trkpt lat="43.53673" lon="5.54301">
        <ele>403.93</ele>
        <time>2014-03-02T10:59:04Z</time>
      </trkpt>
      <trkpt lat="43.53666" lon="5.54324">
        <ele>403.09</ele>
        <time>2014-03-02T10:59:21Z</time>
      </trkpt>
      <trkpt lat="43.5366" lon="5.54348">
        <ele>402.86</ele>
        <time>2014-03-02T10:59:41Z</time>
      </trkpt>
      <trkpt lat="43.5367" lon="5.54369">
        <ele>401.7</ele>
        <time>2014-03-02T11:00:00Z</time>
      </trkpt>
      <trkpt lat="43.53681" lon="5.5439">
        <ele>401.18</ele>
        <time>2014-03-02T11:00:16Z</time>
      </trkpt>
      <trkpt lat="43.53694" lon="5.54408">
        <ele>402.08</ele>
        <time>2014-03-02T11:00:34Z</time>
      </trkpt>
      <trkpt lat="43.53703" lon="5.5443">
        <ele>404.9</ele>
        <time>2014-03-02T11:00:52Z</time>
      </trkpt>
      <trkpt lat="43.5371" lon="5.54453">
        <ele>406.85</ele>
        <time>2014-03-02T11:01:12Z</time>
      </trkpt>
      <trkpt lat="43.53714" lon="5.54478">
        <ele>409.22</ele>
        <time>2014-03-02T11:01:34Z</time>
      </trkpt>
      <trkpt lat="43.53725" lon="5.54499">
        <ele>412.01</ele>
        <time>2014-03-02T11:01:56Z</time>
      </trkpt>
      <trkpt lat="43.53728" lon="5.54525">
        <ele>413.23</ele>
        <time>2014-03-02T11:02:22Z</time>
      </trkpt>
      <trkpt lat="43.53726" lon="5.54551">
        <ele>417.06</ele>
        <time>2014-03-02T11:02:43Z</time>
      </trkpt>
      <trkpt lat="43.53733" lon="5.54575">
        <ele>419.64</ele>
        <time>2014-03-02T11:03:05Z</time>
      </trkpt>
      <trkpt lat="43.53745" lon="5.54594">
        <ele>423.08</ele>
        <time>2014-03-02T11:03:29Z</time>
      </trkpt>
      <trkpt lat="43.53755" lon="5.54615">
        <ele>425.1</ele>
        <time>2014-03-02T11:03:49Z</time>
      </trkpt>
      <trkpt lat="43.53771" lon="5.54627">
        <ele>429.57</ele>
        <time>2014-03-02T11:04:17Z</time>
      </trkpt>
      <trkpt lat="43.53773" lon="5.54653">
        <ele>434.44</ele>
        <time>2014-03-02T11:04:36Z</time>
      </trkpt>
      <trkpt lat="43.53776" lon="5.54677">
        <ele>438.94</ele>
        <time>2014-03-02T11:05:00Z</time>
      </trkpt>
      <trkpt lat="43.53779" lon="5.54702">
        <ele>441.55</ele>
        <time>2014-03-02T11:05:24Z</time>
      </trkpt>
      <trkpt lat="43.53785" lon="5.54726">
        <ele>446.03</ele>
        <time>2014-03-02T11:05:54Z</time>
      </trkpt>
      <trkpt lat="43.53795" lon="5.54747">
        <ele>451.12</ele>
        <time>2014-03-02T11:06:31Z</time>
      </trkpt>
      <trkpt lat="43.53793" lon="5.54772">
        <ele>457.03</ele>
        <time>2014-03-02T11:07:04Z</time>
      </trkpt>
      <trkpt lat="43.53795" lon="5.54796">
        <ele>461.67</ele>
        <time>2014-03-02T11:07:35Z</time>
      </trkpt>
      <trkpt lat="43.53797" lon="5.54822">
        <ele>466.37</ele>
        <time>2014-03-02T11:08:03Z</time>
      </trkpt>
      <trkpt lat="43.53803" lon="5.54845">
        <ele>473.2</ele>
        <time>2014-03-02T11:10:04Z</time>
      </trkpt>
      <trkpt lat="43.53819" lon="5.54856">
        <ele>474.46</ele>
        <time>2014-03-02T11:11:33Z</time>
      </trkpt>
      <trkpt lat="43.53834" lon="5.54872">
        <ele>476.95</ele>
        <time>2014-03-02T11:11:54Z</time>
      </trkpt>
      <trkpt lat="43.53848" lon="5.54887">
        <ele>479.19</ele>
        <time>2014-03-02T11:12:14Z</time>
      </trkpt>
      <trkpt lat="43.5386" lon="5.54907">
        <ele>480.71</ele>
        <time>2014-03-02T11:12:31Z</time>
      </trkpt>
      <trkpt lat="43.53865" lon="5.5493">
        <ele>484.43</ele>
        <time>2014-03-02T11:12:52Z</time>
      </trkpt>
      <trkpt lat="43.53873" lon="5.54953">
        <ele>487.63</ele>
        <time>2014-03-02T11:13:12Z</time>
      </trkpt>
      <trkpt lat="43.53878" lon="5.54977">
        <ele>490.98</ele>
        <time>2014-03-02T11:13:35Z</time>
      </trkpt>
      <trkpt lat="43.5389" lon="5.54997">
        <ele>493.22</ele>
        <time>2014-03-02T11:14:00Z</time>
      </trkpt>
      <trkpt lat="43.53895" lon="5.55021">
        <ele>496.13</ele>
        <time>2014-03-02T11:14:21Z</time>
      </trkpt>
      <trkpt lat="43.53903" lon="5.55043">
        <ele>500.17</ele>
        <time>2014-03-02T11:14:43Z</time>
      </trkpt>
      <trkpt lat="43.53908" lon="5.55067">
        <ele>502.94</ele>
        <time>2014-03-02T11:15:07Z</time>
      </trkpt>
      <trkpt lat="43.53914" lon="5.5509">
        <ele>505.58</ele>
        <time>2014-03-02T11:15:28Z</time>
      </trkpt>
      <trkpt lat="43.5392" lon="5.55115">
        <ele>508.72</ele>
        <time>2014-03-02T11:15:52Z</time>
      </trkpt>
      <trkpt lat="43.53914" lon="5.55139">
        <ele>512.13</ele>
        <time>2014-03-02T11:16:14Z</time>
      </trkpt>
      <trkpt lat="43.53912" lon="5.55164">
        <ele>514.66</ele>
        <time>2014-03-02T11:16:32Z</time>
      </trkpt>
      <trkpt lat="43.53911" lon="5.55189">
        <ele>517.03</ele>
        <time>2014-03-02T11:16:47Z</time>
      </trkpt>
      <trkpt lat="43.53915" lon="5.55214">
        <ele>518.82</ele>
        <time>2014-03-02T11:17:04Z</time>
      </trkpt>
      <trkpt lat="43.53927" lon="5.55233">
        <ele>520.29</ele>
        <time>2014-03-02T11:17:17Z</time>
      </trkpt>
      <trkpt lat="43.53928" lon="5.55259">
        <ele>521.52</ele>
        <time>2014-03-02T11:17:40Z</time>
      </trkpt>
      <trkpt lat="43.53927" lon="5.55284">
        <ele>524.52</ele>
        <time>2014-03-02T11:18:16Z</time>
      </trkpt>
      <trkpt lat="43.53921" lon="5.55308">
        <ele>527.56</ele>
        <time>2014-03-02T11:18:44Z</time>
      </trkpt>
      <trkpt lat="43.53918" lon="5.55333">
        <ele>531.03</ele>
        <time>2014-03-02T11:19:12Z</time>
      </trkpt>
      <trkpt lat="43.53919" lon="5.55358">
        <ele>535.04</ele>
        <time>2014-03-02T11:19:48Z</time>
      </trkpt>
      <trkpt lat="43.53912" lon="5.55381">
        <ele>542.93</ele>
        <time>2014-03-02T11:20:39Z</time>
      </trkpt>
      <trkpt lat="43.53906" lon="5.55405">
        <ele>547.83</ele>
        <time>2014-03-02T11:21:12Z</time>
      </trkpt>
      <trkpt lat="43.53896" lon="5.55426">
        <ele>552.83</ele>
        <time>2014-03-02T11:21:39Z</time>
      </trkpt>
      <trkpt lat="43.53888" lon="5.55448">
        <ele>558.56</ele>
        <time>2014-03-02T11:22:14Z</time>
      </trkpt>
      <trkpt lat="43.53882" lon="5.55472">
        <ele>564.54</ele>
        <time>2014-03-02T11:22:51Z</time>
      </trkpt>
      <trkpt lat="43.53871" lon="5.55492">
        <ele>571.55</ele>
        <time>2014-03-02T11:23:27Z</time>
      </trkpt>
      <trkpt lat="43.53862" lon="5.55514">
        <ele>577.5</ele>
        <time>2014-03-02T11:23:58Z</time>
      </trkpt>
      <trkpt lat="43.53855" lon="5.55537">
        <ele>583.81</ele>
        <time>2014-03-02T11:24:39Z</time>
      </trkpt>
      <trkpt lat="43.53843" lon="5.55555">
        <ele>590.77</ele>
        <time>2014-03-02T11:25:17Z</time>
      </trkpt>
      <trkpt lat="43.5384" lon="5.55567">
        <ele>595.83</ele>
        <time>2014-03-02T11:28:07Z</time>
      </trkpt>
      <trkpt lat="43.53843" lon="5.55592">
        <ele>600.81</ele>
        <time>2014-03-02T11:30:24Z</time>
      </trkpt>
      <trkpt lat="43.53841" lon="5.55618">
        <ele>603.56</ele>
        <time>2014-03-02T11:30:51Z</time>
      </trkpt>
      <trkpt lat="43.53839" lon="5.55643">
        <ele>606.26</ele>
        <time>2014-03-02T11:31:17Z</time>
      </trkpt>
      <trkpt lat="43.53841" lon="5.55669">
        <ele>609.48</ele>
        <time>2014-03-02T11:31:40Z</time>
      </trkpt>
      <trkpt lat="43.53833" lon="5.55692">
        <ele>615.81</ele>
        <time>2014-03-02T11:32:24Z</time>
      </trkpt>
      <trkpt lat="43.53836" lon="5.55717">
        <ele>622.73</ele>
        <time>2014-03-02T11:32:55Z</time>
      </trkpt>
      <trkpt lat="43.53846" lon="5.55738">
        <ele>625.49</ele>
        <time>2014-03-02T11:33:16Z</time>
      </trkpt>
      <trkpt lat="43.53842" lon="5.55763">
        <ele>628.81</ele>
        <time>2014-03-02T11:33:44Z</time>
      </trkpt>
      <trkpt lat="43.5385" lon="5.55785">
        <ele>630.61</ele>
        <time>2014-03-02T11:34:03Z</time>
      </trkpt>
      <trkpt lat="43.53853" lon="5.5581">
        <ele>631.79</ele>
        <time>2014-03-02T11:34:21Z</time>
      </trkpt>
      <trkpt lat="43.53851" lon="5.55835">
        <ele>633.88</ele>
        <time>2014-03-02T11:34:44Z</time>
      </trkpt>
      <trkpt lat="43.53851" lon="5.55859">
        <ele>637.44</ele>
        <time>2014-03-02T11:35:09Z</time>
      </trkpt>
      <trkpt lat="43.53855" lon="5.55903">
        <ele>621.41</ele>
        <time>2014-03-02T11:35:53Z</time>
      </trkpt>
      <trkpt lat="43.53853" lon="5.55873">
        <ele>655.37</ele>
        <time>2014-03-02T11:36:20Z</time>
      </trkpt>
      <trkpt lat="43.53863" lon="5.55895">
        <ele>648.28</ele>
        <time>2014-03-02T11:37:19Z</time>
      </trkpt>
      <trkpt lat="43.53865" lon="5.55921">
        <ele>644.85</ele>
        <time>2014-03-02T11:37:42Z</time>
      </trkpt>
      <trkpt lat="43.53873" lon="5.55944">
        <ele>644.43</ele>
        <time>2014-03-02T11:38:03Z</time>
      </trkpt>
      <trkpt lat="43.53871" lon="5.55969">
        <ele>645.66</ele>
        <time>2014-03-02T11:38:19Z</time>
      </trkpt>
      <trkpt lat="43.53871" lon="5.55994">
        <ele>647.54</ele>
        <time>2014-03-02T11:38:37Z</time>
      </trkpt>
      <trkpt lat="43.53877" lon="5.56018">
        <ele>649.4</ele>
        <time>2014-03-02T11:38:55Z</time>
      </trkpt>
      <trkpt lat="43.53887" lon="5.56041">
        <ele>650.04</ele>
        <time>2014-03-02T11:39:12Z</time>
      </trkpt>
      <trkpt lat="43.53892" lon="5.56065">
        <ele>650.01</ele>
        <time>2014-03-02T11:39:28Z</time>
      </trkpt>
      <trkpt lat="43.53895" lon="5.5609">
        <ele>650.83</ele>
        <time>2014-03-02T11:39:43Z</time>
      </trkpt>
      <trkpt lat="43.53886" lon="5.56111">
        <ele>651.06</ele>
        <time>2014-03-02T11:40:05Z</time>
      </trkpt>
      <trkpt lat="43.5387" lon="5.56125">
        <ele>652.84</ele>
        <time>2014-03-02T11:40:36Z</time>
      </trkpt>
      <trkpt lat="43.53857" lon="5.56142">
        <ele>652.18</ele>
        <time>2014-03-02T11:40:50Z</time>
      </trkpt>
      <trkpt lat="43.53847" lon="5.56162">
        <ele>651.55</ele>
        <time>2014-03-02T11:41:07Z</time>
      </trkpt>
      <trkpt lat="43.53838" lon="5.56185">
        <ele>651.78</ele>
        <time>2014-03-02T11:41:24Z</time>
      </trkpt>
      <trkpt lat="43.53833" lon="5.5621">
        <ele>651.5</ele>
        <time>2014-03-02T11:42:00Z</time>
      </trkpt>
      <trkpt lat="43.53828" lon="5.56234">
        <ele>651.82</ele>
        <time>2014-03-02T11:42:20Z</time>
      </trkpt>
      <trkpt lat="43.53829" lon="5.5626">
        <ele>651.15</ele>
        <time>2014-03-02T11:42:41Z</time>
      </trkpt>
      <trkpt lat="43.53832" lon="5.56284">
        <ele>650.12</ele>
        <time>2014-03-02T11:42:59Z</time>
      </trkpt>
      <trkpt lat="43.53833" lon="5.5631">
        <ele>649.28</ele>
        <time>2014-03-02T11:43:17Z</time>
      </trkpt>
      <trkpt lat="43.5383" lon="5.56335">
        <ele>648.51</ele>
        <time>2014-03-02T11:43:37Z</time>
      </trkpt>
      <trkpt lat="43.53832" lon="5.56362">
        <ele>648.35</ele>
        <time>2014-03-02T11:43:55Z</time>
      </trkpt>
      <trkpt lat="43.53832" lon="5.56387">
        <ele>648.83</ele>
        <time>2014-03-02T11:44:11Z</time>
      </trkpt>
      <trkpt lat="43.53838" lon="5.56412">
        <ele>649.35</ele>
        <time>2014-03-02T11:44:31Z</time>
      </trkpt>
      <trkpt lat="43.53843" lon="5.56436">
        <ele>650.48</ele>
        <time>2014-03-02T11:44:50Z</time>
      </trkpt>
      <trkpt lat="43.53845" lon="5.5646">
        <ele>654.05</ele>
        <time>2014-03-02T11:45:15Z</time>
      </trkpt>
      <trkpt lat="43.53852" lon="5.56484">
        <ele>656.37</ele>
        <time>2014-03-02T11:45:36Z</time>
      </trkpt>
      <trkpt lat="43.53853" lon="5.56509">
        <ele>660.7</ele>
        <time>2014-03-02T11:46:02Z</time>
      </trkpt>
      <trkpt lat="43.53858" lon="5.56533">
        <ele>663.86</ele>
        <time>2014-03-02T11:46:23Z</time>
      </trkpt>
      <trkpt lat="43.53864" lon="5.56557">
        <ele>666.37</ele>
        <time>2014-03-02T11:46:46Z</time>
      </trkpt>
      <trkpt lat="43.5386" lon="5.56582">
        <ele>670.89</ele>
        <time>2014-03-02T11:47:17Z</time>
      </trkpt>
      <trkpt lat="43.5386" lon="5.56607">
        <ele>676.09</ele>
        <time>2014-03-02T11:47:44Z</time>
      </trkpt>
      <trkpt lat="43.53859" lon="5.56633">
        <ele>679.74</ele>
        <time>2014-03-02T11:48:06Z</time>
      </trkpt>
      <trkpt lat="43.53852" lon="5.56657">
        <ele>682.66</ele>
        <time>2014-03-02T11:48:31Z</time>
      </trkpt>
      <trkpt lat="43.53851" lon="5.56682">
        <ele>685.28</ele>
        <time>2014-03-02T11:48:53Z</time>
      </trkpt>
      <trkpt lat="43.53853" lon="5.56708">
        <ele>687.04</ele>
        <time>2014-03-02T11:49:20Z</time>
      </trkpt>
      <trkpt lat="43.53843" lon="5.56729">
        <ele>686.37</ele>
        <time>2014-03-02T11:49:42Z</time>
      </trkpt>
      <trkpt lat="43.53836" lon="5.56753">
        <ele>686.9</ele>
        <time>2014-03-02T11:50:04Z</time>
      </trkpt>
      <trkpt lat="43.53824" lon="5.56774">
        <ele>688.68</ele>
        <time>2014-03-02T11:50:30Z</time>
      </trkpt>
      <trkpt lat="43.53818" lon="5.56797">
        <ele>689.73</ele>
        <time>2014-03-02T11:50:47Z</time>
      </trkpt>
      <trkpt lat="43.53808" lon="5.56818">
        <ele>690.98</ele>
        <time>2014-03-02T11:51:13Z</time>
      </trkpt>
      <trkpt lat="43.53801" lon="5.56842">
        <ele>691.66</ele>
        <time>2014-03-02T11:51:32Z</time>
      </trkpt>
      <trkpt lat="43.53793" lon="5.56864">
        <ele>693.14</ele>
        <time>2014-03-02T11:51:55Z</time>
      </trkpt>
      <trkpt lat="43.53779" lon="5.56881">
        <ele>694.64</ele>
        <time>2014-03-02T11:52:21Z</time>
      </trkpt>
      <trkpt lat="43.53771" lon="5.56903">
        <ele>694.39</ele>
        <time>2014-03-02T11:57:54Z</time>
      </trkpt>
      <trkpt lat="43.53761" lon="5.56924">
        <ele>692.89</ele>
        <time>2014-03-02T11:58:33Z</time>
      </trkpt>
      <trkpt lat="43.53753" lon="5.56947">
        <ele>693.76</ele>
        <time>2014-03-02T11:58:56Z</time>
      </trkpt>
      <trkpt lat="43.53745" lon="5.5697">
        <ele>695.96</ele>
        <time>2014-03-02T11:59:22Z</time>
      </trkpt>
      <trkpt lat="43.53736" lon="5.56993">
        <ele>697.46</ele>
        <time>2014-03-02T11:59:46Z</time>
      </trkpt>
      <trkpt lat="43.53721" lon="5.5701">
        <ele>700.31</ele>
        <time>2014-03-02T12:00:13Z</time>
      </trkpt>
      <trkpt lat="43.53708" lon="5.57027">
        <ele>705.74</ele>
        <time>2014-03-02T12:00:44Z</time>
      </trkpt>
      <trkpt lat="43.53693" lon="5.57042">
        <ele>710.74</ele>
        <time>2014-03-02T12:01:23Z</time>
      </trkpt>
      <trkpt lat="43.53685" lon="5.57065">
        <ele>715.89</ele>
        <time>2014-03-02T12:01:53Z</time>
      </trkpt>
      <trkpt lat="43.5367" lon="5.57078">
        <ele>719.13</ele>
        <time>2014-03-02T12:02:16Z</time>
      </trkpt>
      <trkpt lat="43.5366" lon="5.57099">
        <ele>723.05</ele>
        <time>2014-03-02T12:02:42Z</time>
      </trkpt>
      <trkpt lat="43.53655" lon="5.57124">
        <ele>728.35</ele>
        <time>2014-03-02T12:03:24Z</time>
      </trkpt>
      <trkpt lat="43.53652" lon="5.57149">
        <ele>732.81</ele>
        <time>2014-03-02T12:03:46Z</time>
      </trkpt>
      <trkpt lat="43.53634" lon="5.57145">
        <ele>739.66</ele>
        <time>2014-03-02T12:04:31Z</time>
      </trkpt>
      <trkpt lat="43.53628" lon="5.57168">
        <ele>746.5</ele>
        <time>2014-03-02T12:05:12Z</time>
      </trkpt>
      <trkpt lat="43.53616" lon="5.57187">
        <ele>751.27</ele>
        <time>2014-03-02T12:05:54Z</time>
      </trkpt>
      <trkpt lat="43.53605" lon="5.57207">
        <ele>756.04</ele>
        <time>2014-03-02T12:06:22Z</time>
      </trkpt>
      <trkpt lat="43.53587" lon="5.57202">
        <ele>761.41</ele>
        <time>2014-03-02T12:07:00Z</time>
      </trkpt>
      <trkpt lat="43.53571" lon="5.57217">
        <ele>765.93</ele>
        <time>2014-03-02T12:07:29Z</time>
      </trkpt>
      <trkpt lat="43.53559" lon="5.57235">
        <ele>768.4</ele>
        <time>2014-03-02T12:07:51Z</time>
      </trkpt>
      <trkpt lat="43.53546" lon="5.57253">
        <ele>771.42</ele>
        <time>2014-03-02T12:08:09Z</time>
      </trkpt>
      <trkpt lat="43.53531" lon="5.57268">
        <ele>775.42</ele>
        <time>2014-03-02T12:08:32Z</time>
      </trkpt>
      <trkpt lat="43.53519" lon="5.57287">
        <ele>780.36</ele>
        <time>2014-03-02T12:09:02Z</time>
      </trkpt>
      <trkpt lat="43.53509" lon="5.57309">
        <ele>784.05</ele>
        <time>2014-03-02T12:09:28Z</time>
      </trkpt>
      <trkpt lat="43.53492" lon="5.57317">
        <ele>786.6</ele>
        <time>2014-03-02T12:09:53Z</time>
      </trkpt>
      <trkpt lat="43.53476" lon="5.57329">
        <ele>790.43</ele>
        <time>2014-03-02T12:10:25Z</time>
      </trkpt>
      <trkpt lat="43.53461" lon="5.57344">
        <ele>794.97</ele>
        <time>2014-03-02T12:10:56Z</time>
      </trkpt>
      <trkpt lat="43.53446" lon="5.57358">
        <ele>798.61</ele>
        <time>2014-03-02T12:11:22Z</time>
      </trkpt>
      <trkpt lat="43.53429" lon="5.57366">
        <ele>802.03</ele>
        <time>2014-03-02T12:11:45Z</time>
      </trkpt>
      <trkpt lat="43.53411" lon="5.5736">
        <ele>803.55</ele>
        <time>2014-03-02T12:12:09Z</time>
      </trkpt>
      <trkpt lat="43.53398" lon="5.57378">
        <ele>808.37</ele>
        <time>2014-03-02T12:12:41Z</time>
      </trkpt>
      <trkpt lat="43.53389" lon="5.574">
        <ele>813.99</ele>
        <time>2014-03-02T12:13:07Z</time>
      </trkpt>
      <trkpt lat="43.53375" lon="5.57415">
        <ele>820.13</ele>
        <time>2014-03-02T12:13:56Z</time>
      </trkpt>
      <trkpt lat="43.53367" lon="5.57438">
        <ele>826.7</ele>
        <time>2014-03-02T12:14:30Z</time>
      </trkpt>
      <trkpt lat="43.53365" lon="5.57463">
        <ele>834.31</ele>
        <time>2014-03-02T12:15:06Z</time>
      </trkpt>
      <trkpt lat="43.5335" lon="5.57448">
        <ele>838.84</ele>
        <time>2014-03-02T12:15:39Z</time>
      </trkpt>
      <trkpt lat="43.53335" lon="5.57434">
        <ele>841.05</ele>
        <time>2014-03-02T12:15:59Z</time>
      </trkpt>
      <trkpt lat="43.53333" lon="5.57459">
        <ele>848.11</ele>
        <time>2014-03-02T12:17:31Z</time>
      </trkpt>
      <trkpt lat="43.5332" lon="5.57475">
        <ele>853.71</ele>
        <time>2014-03-02T12:18:19Z</time>
      </trkpt>
      <trkpt lat="43.53304" lon="5.57488">
        <ele>861.48</ele>
        <time>2014-03-02T12:19:01Z</time>
      </trkpt>
      <trkpt lat="43.53293" lon="5.57508">
        <ele>867.01</ele>
        <time>2014-03-02T12:19:37Z</time>
      </trkpt>
      <trkpt lat="43.53279" lon="5.57524">
        <ele>872.55</ele>
        <time>2014-03-02T12:20:12Z</time>
      </trkpt>
      <trkpt lat="43.53265" lon="5.5754">
        <ele>880.06</ele>
        <time>2014-03-02T12:20:54Z</time>
      </trkpt>
      <trkpt lat="43.5325" lon="5.57556">
        <ele>885.88</ele>
        <time>2014-03-02T12:21:34Z</time>
      </trkpt>
      <trkpt lat="43.53239" lon="5.57575">
        <ele>892.92</ele>
        <time>2014-03-02T12:22:11Z</time>
      </trkpt>
      <trkpt lat="43.53225" lon="5.57591">
        <ele>900.01</ele>
        <time>2014-03-02T12:22:54Z</time>
      </trkpt>
      <trkpt lat="43.53217" lon="5.57614">
        <ele>906.19</ele>
        <time>2014-03-02T12:23:29Z</time>
      </trkpt>
      <trkpt lat="43.53212" lon="5.57638">
        <ele>910.46</ele>
        <time>2014-03-02T12:23:50Z</time>
      </trkpt>
      <trkpt lat="43.53207" lon="5.57662">
        <ele>913.99</ele>
        <time>2014-03-02T12:24:16Z</time>
      </trkpt>
      <trkpt lat="43.532" lon="5.57685">
        <ele>917.05</ele>
        <time>2014-03-02T12:24:44Z</time>
      </trkpt>
      <trkpt lat="43.53194" lon="5.57709">
        <ele>918.52</ele>
        <time>2014-03-02T12:24:58Z</time>
      </trkpt>
      <trkpt lat="43.53188" lon="5.57732">
        <ele>922.17</ele>
        <time>2014-03-02T12:25:23Z</time>
      </trkpt>
      <trkpt lat="43.53188" lon="5.57758">
        <ele>924.7</ele>
        <time>2014-03-02T12:25:42Z</time>
      </trkpt>
      <trkpt lat="43.53191" lon="5.57783">
        <ele>926.26</ele>
        <time>2014-03-02T12:26:01Z</time>
      </trkpt>
      <trkpt lat="43.53182" lon="5.57806">
        <ele>928.89</ele>
        <time>2014-03-02T12:26:31Z</time>
      </trkpt>
      <trkpt lat="43.5318" lon="5.57819">
        <ele>930.78</ele>
        <time>2014-03-02T12:27:16Z</time>
      </trkpt>
      <trkpt lat="43.53163" lon="5.57828">
        <ele>932.06</ele>
        <time>2014-03-02T12:29:35Z</time>
      </trkpt>
      <trkpt lat="43.53148" lon="5.57843">
        <ele>935.73</ele>
        <time>2014-03-02T12:30:11Z</time>
      </trkpt>
      <trkpt lat="43.53166" lon="5.57839">
        <ele>939.93</ele>
        <time>2014-03-02T12:32:15Z</time>
      </trkpt>
      <trkpt lat="43.53173" lon="5.57815">
        <ele>937.42</ele>
        <time>2014-03-02T12:32:36Z</time>
      </trkpt>
      <trkpt lat="43.53156" lon="5.57827">
        <ele>932.43</ele>
        <time>2014-03-02T12:37:21Z</time>
      </trkpt>
      <trkpt lat="43.53146" lon="5.57848">
        <ele>929.1</ele>
        <time>2014-03-02T12:37:59Z</time>
      </trkpt>
      <trkpt lat="43.53162" lon="5.57832">
        <ele>937.53</ele>
        <time>2014-03-02T12:44:36Z</time>
      </trkpt>
      <trkpt lat="43.53172" lon="5.57852">
        <ele>934.67</ele>
        <time>2014-03-02T12:45:12Z</time>
      </trkpt>
      <trkpt lat="43.53168" lon="5.57876">
        <ele>936.05</ele>
        <time>2014-03-02T12:45:44Z</time>
      </trkpt>
      <trkpt lat="43.53149" lon="5.57877">
        <ele>941.98</ele>
        <time>2014-03-02T12:47:19Z</time>
      </trkpt>
      <trkpt lat="43.53143" lon="5.57901">
        <ele>947.24</ele>
        <time>2014-03-02T12:47:59Z</time>
      </trkpt>
      <trkpt lat="43.53136" lon="5.57924">
        <ele>951.53</ele>
        <time>2014-03-02T12:48:35Z</time>
      </trkpt>
      <trkpt lat="43.53123" lon="5.57943">
        <ele>963.59</ele>
        <time>2014-03-02T12:49:54Z</time>
      </trkpt>
      <trkpt lat="43.5312" lon="5.57968">
        <ele>966.32</ele>
        <time>2014-03-02T12:50:36Z</time>
      </trkpt>
      <trkpt lat="43.53108" lon="5.57988">
        <ele>968.57</ele>
        <time>2014-03-02T12:51:04Z</time>
      </trkpt>
      <trkpt lat="43.53104" lon="5.58012">
        <ele>972.29</ele>
        <time>2014-03-02T12:51:28Z</time>
      </trkpt>
      <trkpt lat="43.53095" lon="5.57997">
        <ele>991.66</ele>
        <time>2014-03-02T12:57:30Z</time>
      </trkpt>
      <trkpt lat="43.53109" lon="5.5798">
        <ele>989.29</ele>
        <time>2014-03-02T13:01:14Z</time>
      </trkpt>
      <trkpt lat="43.53109" lon="5.57955">
        <ele>985</ele>
        <time>2014-03-02T13:03:51Z</time>
      </trkpt>
      <trkpt lat="43.53107" lon="5.57955">
        <ele>982.43</ele>
        <time>2014-03-02T13:27:41Z</time>
      </trkpt>
      <trkpt lat="43.53124" lon="5.57959">
        <ele>974.73</ele>
        <time>2014-03-02T13:48:55Z</time>
      </trkpt>
      <trkpt lat="43.53129" lon="5.57935">
        <ele>970.63</ele>
        <time>2014-03-02T13:49:35Z</time>
      </trkpt>
      <trkpt lat="43.53138" lon="5.57913">
        <ele>964.84</ele>
        <time>2014-03-02T13:50:56Z</time>
      </trkpt>
      <trkpt lat="43.53143" lon="5.57888">
        <ele>959.97</ele>
        <time>2014-03-02T13:51:25Z</time>
      </trkpt>
      <trkpt lat="43.53161" lon="5.57884">
        <ele>952.86</ele>
        <time>2014-03-02T13:52:31Z</time>
      </trkpt>
      <trkpt lat="43.53169" lon="5.57862">
        <ele>941.14</ele>
        <time>2014-03-02T13:53:41Z</time>
      </trkpt>
      <trkpt lat="43.53166" lon="5.57836">
        <ele>936.44</ele>
        <time>2014-03-02T13:54:44Z</time>
      </trkpt>
      <trkpt lat="43.53171" lon="5.57812">
        <ele>935.41</ele>
        <time>2014-03-02T13:54:58Z</time>
      </trkpt>
      <trkpt lat="43.53186" lon="5.57793">
        <ele>933.95</ele>
        <time>2014-03-02T13:55:38Z</time>
      </trkpt>
      <trkpt lat="43.53189" lon="5.57768">
        <ele>932.27</ele>
        <time>2014-03-02T13:56:00Z</time>
      </trkpt>
      <trkpt lat="43.53191" lon="5.57743">
        <ele>929.55</ele>
        <time>2014-03-02T13:56:26Z</time>
      </trkpt>
      <trkpt lat="43.5319" lon="5.57717">
        <ele>927.32</ele>
        <time>2014-03-02T13:56:44Z</time>
      </trkpt>
      <trkpt lat="43.53198" lon="5.57694">
        <ele>925.06</ele>
        <time>2014-03-02T13:57:02Z</time>
      </trkpt>
      <trkpt lat="43.53202" lon="5.57669">
        <ele>922.76</ele>
        <time>2014-03-02T13:57:29Z</time>
      </trkpt>
      <trkpt lat="43.5321" lon="5.57646">
        <ele>920.56</ele>
        <time>2014-03-02T13:57:54Z</time>
      </trkpt>
      <trkpt lat="43.53214" lon="5.57621">
        <ele>917.68</ele>
        <time>2014-03-02T13:58:16Z</time>
      </trkpt>
      <trkpt lat="43.53218" lon="5.57597">
        <ele>912.82</ele>
        <time>2014-03-02T13:58:53Z</time>
      </trkpt>
      <trkpt lat="43.53229" lon="5.57576">
        <ele>908.05</ele>
        <time>2014-03-02T13:59:26Z</time>
      </trkpt>
      <trkpt lat="43.53244" lon="5.57561">
        <ele>900.57</ele>
        <time>2014-03-02T14:00:13Z</time>
      </trkpt>
      <trkpt lat="43.53256" lon="5.57544">
        <ele>893.45</ele>
        <time>2014-03-02T14:00:51Z</time>
      </trkpt>
      <trkpt lat="43.5327" lon="5.57527">
        <ele>887.14</ele>
        <time>2014-03-02T14:01:33Z</time>
      </trkpt>
      <trkpt lat="43.53284" lon="5.57511">
        <ele>880.49</ele>
        <time>2014-03-02T14:02:12Z</time>
      </trkpt>
      <trkpt lat="43.53299" lon="5.57495">
        <ele>874.53</ele>
        <time>2014-03-02T14:02:43Z</time>
      </trkpt>
      <trkpt lat="43.53313" lon="5.57479">
        <ele>865.58</ele>
        <time>2014-03-02T14:03:28Z</time>
      </trkpt>
      <trkpt lat="43.53329" lon="5.57468">
        <ele>857.66</ele>
        <time>2014-03-02T14:04:13Z</time>
      </trkpt>
      <trkpt lat="43.53327" lon="5.57442">
        <ele>853.02</ele>
        <time>2014-03-02T14:04:47Z</time>
      </trkpt>
      <trkpt lat="43.53345" lon="5.57438">
        <ele>848.04</ele>
        <time>2014-03-02T14:05:44Z</time>
      </trkpt>
      <trkpt lat="43.53357" lon="5.57457">
        <ele>846.07</ele>
        <time>2014-03-02T14:06:05Z</time>
      </trkpt>
      <trkpt lat="43.5336" lon="5.57433">
        <ele>841.06</ele>
        <time>2014-03-02T14:06:58Z</time>
      </trkpt>
      <trkpt lat="43.53373" lon="5.57415">
        <ele>836.08</ele>
        <time>2014-03-02T14:07:37Z</time>
      </trkpt>
      <trkpt lat="43.53384" lon="5.57395">
        <ele>830.99</ele>
        <time>2014-03-02T14:08:13Z</time>
      </trkpt>
      <trkpt lat="43.53392" lon="5.57372">
        <ele>824.39</ele>
        <time>2014-03-02T14:09:12Z</time>
      </trkpt>
      <trkpt lat="43.53373" lon="5.57376">
        <ele>822.07</ele>
        <time>2014-03-02T14:10:18Z</time>
      </trkpt>
      <trkpt lat="43.53355" lon="5.57379">
        <ele>818.73</ele>
        <time>2014-03-02T14:10:47Z</time>
      </trkpt>
      <trkpt lat="43.53337" lon="5.57373">
        <ele>806.71</ele>
        <time>2014-03-02T14:11:47Z</time>
      </trkpt>
      <trkpt lat="43.53321" lon="5.57361">
        <ele>794.87</ele>
        <time>2014-03-02T14:12:44Z</time>
      </trkpt>
      <trkpt lat="43.53302" lon="5.57358">
        <ele>792.26</ele>
        <time>2014-03-02T14:13:09Z</time>
      </trkpt>
      <trkpt lat="43.53286" lon="5.57347">
        <ele>786.27</ele>
        <time>2014-03-02T14:14:04Z</time>
      </trkpt>
      <trkpt lat="43.53273" lon="5.57329">
        <ele>778.63</ele>
        <time>2014-03-02T14:14:46Z</time>
      </trkpt>
      <trkpt lat="43.53275" lon="5.57304">
        <ele>763.64</ele>
        <time>2014-03-02T14:15:39Z</time>
      </trkpt>
      <trkpt lat="43.53291" lon="5.57293">
        <ele>749.05</ele>
        <time>2014-03-02T14:16:53Z</time>
      </trkpt>
      <trkpt lat="43.53309" lon="5.5729">
        <ele>743.35</ele>
        <time>2014-03-02T14:17:44Z</time>
      </trkpt>
      <trkpt lat="43.53305" lon="5.57265">
        <ele>731.86</ele>
        <time>2014-03-02T14:19:14Z</time>
      </trkpt>
      <trkpt lat="43.53304" lon="5.5724">
        <ele>718</ele>
        <time>2014-03-02T14:20:23Z</time>
      </trkpt>
      <trkpt lat="43.53315" lon="5.5722">
        <ele>709.9</ele>
        <time>2014-03-02T14:21:16Z</time>
      </trkpt>
      <trkpt lat="43.53317" lon="5.57195">
        <ele>699.28</ele>
        <time>2014-03-02T14:22:07Z</time>
      </trkpt>
      <trkpt lat="43.53318" lon="5.5717">
        <ele>689.48</ele>
        <time>2014-03-02T14:22:53Z</time>
      </trkpt>
      <trkpt lat="43.53316" lon="5.57146">
        <ele>676.35</ele>
        <time>2014-03-02T14:23:59Z</time>
      </trkpt>
      <trkpt lat="43.53308" lon="5.57124">
        <ele>666.91</ele>
        <time>2014-03-02T14:24:53Z</time>
      </trkpt>
      <trkpt lat="43.53304" lon="5.57105">
        <ele>652.9</ele>
        <time>2014-03-02T14:28:20Z</time>
      </trkpt>
      <trkpt lat="43.53295" lon="5.57083">
        <ele>642.69</ele>
        <time>2014-03-02T14:29:59Z</time>
      </trkpt>
      <trkpt lat="43.53287" lon="5.57061">
        <ele>641.53</ele>
        <time>2014-03-02T14:30:21Z</time>
      </trkpt>
      <trkpt lat="43.53268" lon="5.57057">
        <ele>637</ele>
        <time>2014-03-02T14:30:50Z</time>
      </trkpt>
      <trkpt lat="43.5325" lon="5.57054">
        <ele>634.56</ele>
        <time>2014-03-02T14:31:18Z</time>
      </trkpt>
      <trkpt lat="43.53237" lon="5.57036">
        <ele>632.51</ele>
        <time>2014-03-02T14:31:41Z</time>
      </trkpt>
      <trkpt lat="43.53231" lon="5.57012">
        <ele>625.99</ele>
        <time>2014-03-02T14:32:26Z</time>
      </trkpt>
      <trkpt lat="43.53239" lon="5.5699">
        <ele>619.88</ele>
        <time>2014-03-02T14:33:07Z</time>
      </trkpt>
      <trkpt lat="43.53231" lon="5.56968">
        <ele>614.77</ele>
        <time>2014-03-02T14:33:33Z</time>
      </trkpt>
      <trkpt lat="43.53233" lon="5.56942">
        <ele>610.4</ele>
        <time>2014-03-02T14:34:02Z</time>
      </trkpt>
      <trkpt lat="43.5323" lon="5.56917">
        <ele>607.32</ele>
        <time>2014-03-02T14:34:23Z</time>
      </trkpt>
      <trkpt lat="43.53226" lon="5.56892">
        <ele>604.75</ele>
        <time>2014-03-02T14:34:42Z</time>
      </trkpt>
      <trkpt lat="43.53224" lon="5.56867">
        <ele>602.32</ele>
        <time>2014-03-02T14:34:57Z</time>
      </trkpt>
      <trkpt lat="43.53221" lon="5.56842">
        <ele>599.31</ele>
        <time>2014-03-02T14:35:42Z</time>
      </trkpt>
      <trkpt lat="43.53211" lon="5.56821">
        <ele>595.61</ele>
        <time>2014-03-02T14:36:15Z</time>
      </trkpt>
      <trkpt lat="43.53202" lon="5.56799">
        <ele>590.36</ele>
        <time>2014-03-02T14:36:46Z</time>
      </trkpt>
      <trkpt lat="43.53193" lon="5.56777">
        <ele>586.73</ele>
        <time>2014-03-02T14:37:21Z</time>
      </trkpt>
      <trkpt lat="43.53174" lon="5.56778">
        <ele>579.1</ele>
        <time>2014-03-02T14:40:59Z</time>
      </trkpt>
      <trkpt lat="43.53159" lon="5.56764">
        <ele>579.97</ele>
        <time>2014-03-02T14:41:28Z</time>
      </trkpt>
      <trkpt lat="43.53151" lon="5.56742">
        <ele>578.16</ele>
        <time>2014-03-02T14:42:03Z</time>
      </trkpt>
      <trkpt lat="43.53148" lon="5.56718">
        <ele>573.46</ele>
        <time>2014-03-02T14:42:43Z</time>
      </trkpt>
      <trkpt lat="43.5313" lon="5.56716">
        <ele>566.86</ele>
        <time>2014-03-02T14:43:31Z</time>
      </trkpt>
      <trkpt lat="43.53118" lon="5.56697">
        <ele>563.18</ele>
        <time>2014-03-02T14:44:01Z</time>
      </trkpt>
      <trkpt lat="43.531" lon="5.56694">
        <ele>554.14</ele>
        <time>2014-03-02T14:47:53Z</time>
      </trkpt>
      <trkpt lat="43.53082" lon="5.56684">
        <ele>553.7</ele>
        <time>2014-03-02T14:48:15Z</time>
      </trkpt>
      <trkpt lat="43.53074" lon="5.56706">
        <ele>549.76</ele>
        <time>2014-03-02T14:48:44Z</time>
      </trkpt>
      <trkpt lat="43.53058" lon="5.56717">
        <ele>547.08</ele>
        <time>2014-03-02T14:49:02Z</time>
      </trkpt>
      <trkpt lat="43.53042" lon="5.56731">
        <ele>544.31</ele>
        <time>2014-03-02T14:49:23Z</time>
      </trkpt>
      <trkpt lat="43.53043" lon="5.56758">
        <ele>542.63</ele>
        <time>2014-03-02T14:49:42Z</time>
      </trkpt>
      <trkpt lat="43.53054" lon="5.56778">
        <ele>538.67</ele>
        <time>2014-03-02T14:50:02Z</time>
      </trkpt>
      <trkpt lat="43.53047" lon="5.56801">
        <ele>532.15</ele>
        <time>2014-03-02T14:50:43Z</time>
      </trkpt>
      <trkpt lat="43.53036" lon="5.56821">
        <ele>527.04</ele>
        <time>2014-03-02T14:51:10Z</time>
      </trkpt>
      <trkpt lat="43.53025" lon="5.56841">
        <ele>525.29</ele>
        <time>2014-03-02T14:51:27Z</time>
      </trkpt>
      <trkpt lat="43.53013" lon="5.56859">
        <ele>523.81</ele>
        <time>2014-03-02T14:51:44Z</time>
      </trkpt>
      <trkpt lat="43.52995" lon="5.56865">
        <ele>522.42</ele>
        <time>2014-03-02T14:52:02Z</time>
      </trkpt>
      <trkpt lat="43.52984" lon="5.56885">
        <ele>516.95</ele>
        <time>2014-03-02T14:52:30Z</time>
      </trkpt>
      <trkpt lat="43.52974" lon="5.56906">
        <ele>512.87</ele>
        <time>2014-03-02T14:53:01Z</time>
      </trkpt>
      <trkpt lat="43.52958" lon="5.5692">
        <ele>510.31</ele>
        <time>2014-03-02T14:53:18Z</time>
      </trkpt>
      <trkpt lat="43.5294" lon="5.56923">
        <ele>504.86</ele>
        <time>2014-03-02T14:53:41Z</time>
      </trkpt>
      <trkpt lat="43.52923" lon="5.56912">
        <ele>500.23</ele>
        <time>2014-03-02T14:54:02Z</time>
      </trkpt>
      <trkpt lat="43.52905" lon="5.56917">
        <ele>497.98</ele>
        <time>2014-03-02T14:54:17Z</time>
      </trkpt>
      <trkpt lat="43.52887" lon="5.56913">
        <ele>493.2</ele>
        <time>2014-03-02T14:54:32Z</time>
      </trkpt>
      <trkpt lat="43.52877" lon="5.5689">
        <ele>488.86</ele>
        <time>2014-03-02T14:54:48Z</time>
      </trkpt>
      <trkpt lat="43.52878" lon="5.56865">
        <ele>485.47</ele>
        <time>2014-03-02T14:55:01Z</time>
      </trkpt>
      <trkpt lat="43.52877" lon="5.5684">
        <ele>483.11</ele>
        <time>2014-03-02T14:55:14Z</time>
      </trkpt>
      <trkpt lat="43.52883" lon="5.56816">
        <ele>480.91</ele>
        <time>2014-03-02T14:55:28Z</time>
      </trkpt>
      <trkpt lat="43.52888" lon="5.56791">
        <ele>480.2</ele>
        <time>2014-03-02T14:55:57Z</time>
      </trkpt>
      <trkpt lat="43.52895" lon="5.56768">
        <ele>479.32</ele>
        <time>2014-03-02T14:56:09Z</time>
      </trkpt>
      <trkpt lat="43.52892" lon="5.56742">
        <ele>477.64</ele>
        <time>2014-03-02T14:56:32Z</time>
      </trkpt>
      <trkpt lat="43.52889" lon="5.56717">
        <ele>476.9</ele>
        <time>2014-03-02T14:56:46Z</time>
      </trkpt>
      <trkpt lat="43.52888" lon="5.56691">
        <ele>476.61</ele>
        <time>2014-03-02T14:57:01Z</time>
      </trkpt>
      <trkpt lat="43.52891" lon="5.56667">
        <ele>475.74</ele>
        <time>2014-03-02T14:57:18Z</time>
      </trkpt>
      <trkpt lat="43.52895" lon="5.56642">
        <ele>474.67</ele>
        <time>2014-03-02T14:57:30Z</time>
      </trkpt>
      <trkpt lat="43.52902" lon="5.56618">
        <ele>473.77</ele>
        <time>2014-03-02T14:57:43Z</time>
      </trkpt>
      <trkpt lat="43.52909" lon="5.56594">
        <ele>472.78</ele>
        <time>2014-03-02T14:57:57Z</time>
      </trkpt>
      <trkpt lat="43.52915" lon="5.56569">
        <ele>471.36</ele>
        <time>2014-03-02T14:58:10Z</time>
      </trkpt>
      <trkpt lat="43.52918" lon="5.56544">
        <ele>470.7</ele>
        <time>2014-03-02T14:58:29Z</time>
      </trkpt>
      <trkpt lat="43.52912" lon="5.56521">
        <ele>468.31</ele>
        <time>2014-03-02T14:58:52Z</time>
      </trkpt>
      <trkpt lat="43.52901" lon="5.565">
        <ele>465.67</ele>
        <time>2014-03-02T14:59:06Z</time>
      </trkpt>
      <trkpt lat="43.52893" lon="5.56477">
        <ele>462.16</ele>
        <time>2014-03-02T14:59:21Z</time>
      </trkpt>
      <trkpt lat="43.52886" lon="5.56454">
        <ele>460.93</ele>
        <time>2014-03-02T14:59:39Z</time>
      </trkpt>
      <trkpt lat="43.52895" lon="5.56431">
        <ele>460.67</ele>
        <time>2014-03-02T15:00:00Z</time>
      </trkpt>
      <trkpt lat="43.52905" lon="5.5641">
        <ele>459.91</ele>
        <time>2014-03-02T15:00:21Z</time>
      </trkpt>
      <trkpt lat="43.52911" lon="5.56386">
        <ele>459.07</ele>
        <time>2014-03-02T15:00:39Z</time>
      </trkpt>
      <trkpt lat="43.52925" lon="5.56368">
        <ele>457</ele>
        <time>2014-03-02T15:01:00Z</time>
      </trkpt>
      <trkpt lat="43.52934" lon="5.56346">
        <ele>455.09</ele>
        <time>2014-03-02T15:01:14Z</time>
      </trkpt>
      <trkpt lat="43.52937" lon="5.56321">
        <ele>452.89</ele>
        <time>2014-03-02T15:01:30Z</time>
      </trkpt>
      <trkpt lat="43.52942" lon="5.56297">
        <ele>450.86</ele>
        <time>2014-03-02T15:01:49Z</time>
      </trkpt>
      <trkpt lat="43.52945" lon="5.56271">
        <ele>447.81</ele>
        <time>2014-03-02T15:02:07Z</time>
      </trkpt>
      <trkpt lat="43.52949" lon="5.56245">
        <ele>442.68</ele>
        <time>2014-03-02T15:02:30Z</time>
      </trkpt>
      <trkpt lat="43.52951" lon="5.5622">
        <ele>439.87</ele>
        <time>2014-03-02T15:02:44Z</time>
      </trkpt>
      <trkpt lat="43.52953" lon="5.56195">
        <ele>435.04</ele>
        <time>2014-03-02T15:03:01Z</time>
      </trkpt>
      <trkpt lat="43.52956" lon="5.5617">
        <ele>431.77</ele>
        <time>2014-03-02T15:03:16Z</time>
      </trkpt>
      <trkpt lat="43.52957" lon="5.56145">
        <ele>427.17</ele>
        <time>2014-03-02T15:03:34Z</time>
      </trkpt>
      <trkpt lat="43.52955" lon="5.56119">
        <ele>422.61</ele>
        <time>2014-03-02T15:03:53Z</time>
      </trkpt>
      <trkpt lat="43.52948" lon="5.56096">
        <ele>418.51</ele>
        <time>2014-03-02T15:04:09Z</time>
      </trkpt>
      <trkpt lat="43.52945" lon="5.56071">
        <ele>414.96</ele>
        <time>2014-03-02T15:04:27Z</time>
      </trkpt>
      <trkpt lat="43.52941" lon="5.56046">
        <ele>410.43</ele>
        <time>2014-03-02T15:04:47Z</time>
      </trkpt>
      <trkpt lat="43.52937" lon="5.56021">
        <ele>408.59</ele>
        <time>2014-03-02T15:04:59Z</time>
      </trkpt>
      <trkpt lat="43.52947" lon="5.56001">
        <ele>404.87</ele>
        <time>2014-03-02T15:05:22Z</time>
      </trkpt>
      <trkpt lat="43.52934" lon="5.55983">
        <ele>400.94</ele>
        <time>2014-03-02T15:07:22Z</time>
      </trkpt>
      <trkpt lat="43.52918" lon="5.55969">
        <ele>398.59</ele>
        <time>2014-03-02T15:07:37Z</time>
      </trkpt>
      <trkpt lat="43.52913" lon="5.55944">
        <ele>397.19</ele>
        <time>2014-03-02T15:07:47Z</time>
      </trkpt>
      <trkpt lat="43.52905" lon="5.55921">
        <ele>394.37</ele>
        <time>2014-03-02T15:08:09Z</time>
      </trkpt>
      <trkpt lat="43.52896" lon="5.55898">
        <ele>392.96</ele>
        <time>2014-03-02T15:08:22Z</time>
      </trkpt>
      <trkpt lat="43.52899" lon="5.55873">
        <ele>392.69</ele>
        <time>2014-03-02T15:08:33Z</time>
      </trkpt>
      <trkpt lat="43.52898" lon="5.55847">
        <ele>392.29</ele>
        <time>2014-03-02T15:08:51Z</time>
      </trkpt>
      <trkpt lat="43.52893" lon="5.55822">
        <ele>391.68</ele>
        <time>2014-03-02T15:09:06Z</time>
      </trkpt>
      <trkpt lat="43.52892" lon="5.55796">
        <ele>390.29</ele>
        <time>2014-03-02T15:09:24Z</time>
      </trkpt>
      <trkpt lat="43.52889" lon="5.55772">
        <ele>386.61</ele>
        <time>2014-03-02T15:09:44Z</time>
      </trkpt>
      <trkpt lat="43.52887" lon="5.55747">
        <ele>382.28</ele>
        <time>2014-03-02T15:10:02Z</time>
      </trkpt>
      <trkpt lat="43.52882" lon="5.55722">
        <ele>380.35</ele>
        <time>2014-03-02T15:10:15Z</time>
      </trkpt>
      <trkpt lat="43.52877" lon="5.55694">
        <ele>380.4</ele>
        <time>2014-03-02T15:10:25Z</time>
      </trkpt>
      <trkpt lat="43.52872" lon="5.5567">
        <ele>379.97</ele>
        <time>2014-03-02T15:10:41Z</time>
      </trkpt>
      <trkpt lat="43.52869" lon="5.55645">
        <ele>378.51</ele>
        <time>2014-03-02T15:10:58Z</time>
      </trkpt>
      <trkpt lat="43.52866" lon="5.55619">
        <ele>376.15</ele>
        <time>2014-03-02T15:11:14Z</time>
      </trkpt>
      <trkpt lat="43.52858" lon="5.55596">
        <ele>374</ele>
        <time>2014-03-02T15:11:30Z</time>
      </trkpt>
      <trkpt lat="43.5286" lon="5.5557">
        <ele>373.98</ele>
        <time>2014-03-02T15:11:43Z</time>
      </trkpt>
      <trkpt lat="43.52863" lon="5.55545">
        <ele>373.35</ele>
        <time>2014-03-02T15:11:58Z</time>
      </trkpt>
      <trkpt lat="43.52866" lon="5.55519">
        <ele>372.71</ele>
        <time>2014-03-02T15:12:13Z</time>
      </trkpt>
      <trkpt lat="43.52868" lon="5.55494">
        <ele>372.8</ele>
        <time>2014-03-02T15:12:27Z</time>
      </trkpt>
      <trkpt lat="43.52869" lon="5.55468">
        <ele>372.79</ele>
        <time>2014-03-02T15:12:42Z</time>
      </trkpt>
      <trkpt lat="43.52867" lon="5.55443">
        <ele>371.14</ele>
        <time>2014-03-02T15:12:59Z</time>
      </trkpt>
      <trkpt lat="43.52865" lon="5.55418">
        <ele>368.73</ele>
        <time>2014-03-02T15:13:16Z</time>
      </trkpt>
      <trkpt lat="43.52859" lon="5.55394">
        <ele>367.24</ele>
        <time>2014-03-02T15:13:31Z</time>
      </trkpt>
      <trkpt lat="43.52852" lon="5.5537">
        <ele>365.67</ele>
        <time>2014-03-02T15:13:46Z</time>
      </trkpt>
      <trkpt lat="43.52847" lon="5.55345">
        <ele>363</ele>
        <time>2014-03-02T15:14:03Z</time>
      </trkpt>
      <trkpt lat="43.52837" lon="5.55325">
        <ele>361.02</ele>
        <time>2014-03-02T15:14:18Z</time>
      </trkpt>
      <trkpt lat="43.52826" lon="5.55305">
        <ele>358.52</ele>
        <time>2014-03-02T15:14:30Z</time>
      </trkpt>
      <trkpt lat="43.52819" lon="5.55282">
        <ele>355.62</ele>
        <time>2014-03-02T15:14:48Z</time>
      </trkpt>
      <trkpt lat="43.52811" lon="5.55259">
        <ele>352.78</ele>
        <time>2014-03-02T15:15:04Z</time>
      </trkpt>
      <trkpt lat="43.52809" lon="5.55233">
        <ele>349.25</ele>
        <time>2014-03-02T15:15:19Z</time>
      </trkpt>
      <trkpt lat="43.52805" lon="5.55208">
        <ele>346.86</ele>
        <time>2014-03-02T15:15:33Z</time>
      </trkpt>
      <trkpt lat="43.52802" lon="5.55183">
        <ele>344.89</ele>
        <time>2014-03-02T15:15:47Z</time>
      </trkpt>
      <trkpt lat="43.52795" lon="5.55159">
        <ele>343.24</ele>
        <time>2014-03-02T15:16:02Z</time>
      </trkpt>
      <trkpt lat="43.52789" lon="5.55135">
        <ele>342.77</ele>
        <time>2014-03-02T15:16:16Z</time>
      </trkpt>
      <trkpt lat="43.52784" lon="5.55111">
        <ele>341.62</ele>
        <time>2014-03-02T15:16:31Z</time>
      </trkpt>
      <trkpt lat="43.52778" lon="5.55086">
        <ele>338.87</ele>
        <time>2014-03-02T15:16:47Z</time>
      </trkpt>
      <trkpt lat="43.52773" lon="5.55061">
        <ele>337.67</ele>
        <time>2014-03-02T15:17:02Z</time>
      </trkpt>
      <trkpt lat="43.52769" lon="5.55036">
        <ele>335.77</ele>
        <time>2014-03-02T15:17:19Z</time>
      </trkpt>
      <trkpt lat="43.52757" lon="5.55016">
        <ele>333.06</ele>
        <time>2014-03-02T15:17:37Z</time>
      </trkpt>
      <trkpt lat="43.52748" lon="5.54994">
        <ele>330.85</ele>
        <time>2014-03-02T15:17:54Z</time>
      </trkpt>
      <trkpt lat="43.52739" lon="5.54971">
        <ele>327.01</ele>
        <time>2014-03-02T15:18:13Z</time>
      </trkpt>
      <trkpt lat="43.52734" lon="5.54947">
        <ele>323.44</ele>
        <time>2014-03-02T15:18:28Z</time>
      </trkpt>
      <trkpt lat="43.52732" lon="5.54922">
        <ele>320.46</ele>
        <time>2014-03-02T15:18:44Z</time>
      </trkpt>
      <trkpt lat="43.52728" lon="5.54895">
        <ele>319.11</ele>
        <time>2014-03-02T15:18:56Z</time>
      </trkpt>
      <trkpt lat="43.52724" lon="5.5487">
        <ele>319.92</ele>
        <time>2014-03-02T15:19:07Z</time>
      </trkpt>
      <trkpt lat="43.52728" lon="5.54845">
        <ele>320.59</ele>
        <time>2014-03-02T15:19:23Z</time>
      </trkpt>
      <trkpt lat="43.52731" lon="5.5482">
        <ele>320.58</ele>
        <time>2014-03-02T15:19:39Z</time>
      </trkpt>
      <trkpt lat="43.52746" lon="5.54804">
        <ele>315.85</ele>
        <time>2014-03-02T15:20:08Z</time>
      </trkpt>
      <trkpt lat="43.52765" lon="5.54804">
        <ele>312.01</ele>
        <time>2014-03-02T15:20:34Z</time>
      </trkpt>
      <trkpt lat="43.52783" lon="5.54801">
        <ele>312.99</ele>
        <time>2014-03-02T15:20:55Z</time>
      </trkpt>
      <trkpt lat="43.52798" lon="5.54816">
        <ele>308.88</ele>
        <time>2014-03-02T15:21:35Z</time>
      </trkpt>
      <trkpt lat="43.5281" lon="5.54837">
        <ele>305.83</ele>
        <time>2014-03-02T15:21:55Z</time>
      </trkpt>
      <trkpt lat="43.52822" lon="5.54857">
        <ele>303.9</ele>
        <time>2014-03-02T15:22:14Z</time>
      </trkpt>
      <trkpt lat="43.52835" lon="5.54874">
        <ele>303.11</ele>
        <time>2014-03-02T15:22:29Z</time>
      </trkpt>
      <trkpt lat="43.52851" lon="5.54887">
        <ele>304.37</ele>
        <time>2014-03-02T15:22:41Z</time>
      </trkpt>
      <trkpt lat="43.52868" lon="5.54896">
        <ele>307.06</ele>
        <time>2014-03-02T15:22:52Z</time>
      </trkpt>
      <trkpt lat="43.52884" lon="5.5491">
        <ele>310.29</ele>
        <time>2014-03-02T15:23:09Z</time>
      </trkpt>
      <trkpt lat="43.52895" lon="5.54929">
        <ele>313.22</ele>
        <time>2014-03-02T15:23:31Z</time>
      </trkpt>
      <trkpt lat="43.5291" lon="5.54943">
        <ele>313.38</ele>
        <time>2014-03-02T15:23:54Z</time>
      </trkpt>
      <trkpt lat="43.52922" lon="5.54963">
        <ele>312.93</ele>
        <time>2014-03-02T15:24:09Z</time>
      </trkpt>
      <trkpt lat="43.52939" lon="5.5495">
        <ele>312.87</ele>
        <time>2014-03-02T15:24:22Z</time>
      </trkpt>
      <trkpt lat="43.52956" lon="5.5494">
        <ele>313.67</ele>
        <time>2014-03-02T15:24:37Z</time>
      </trkpt>
      <trkpt lat="43.52975" lon="5.5494">
        <ele>313.68</ele>
        <time>2014-03-02T15:24:50Z</time>
      </trkpt>
      <trkpt lat="43.52993" lon="5.54945">
        <ele>315.3</ele>
        <time>2014-03-02T15:25:04Z</time>
      </trkpt>
      <trkpt lat="43.53006" lon="5.54928">
        <ele>317.48</ele>
        <time>2014-03-02T15:25:21Z</time>
      </trkpt>
      <trkpt lat="43.53013" lon="5.54904">
        <ele>317.38</ele>
        <time>2014-03-02T15:25:39Z</time>
      </trkpt>
      <trkpt lat="43.53022" lon="5.54882">
        <ele>316.55</ele>
        <time>2014-03-02T15:25:56Z</time>
      </trkpt>
      <trkpt lat="43.53037" lon="5.54866">
        <ele>317.08</ele>
        <time>2014-03-02T15:26:16Z</time>
      </trkpt>
      <trkpt lat="43.53049" lon="5.54846">
        <ele>317.96</ele>
        <time>2014-03-02T15:26:36Z</time>
      </trkpt>
      <trkpt lat="43.5306" lon="5.54827">
        <ele>320.14</ele>
        <time>2014-03-02T15:26:57Z</time>
      </trkpt>
      <trkpt lat="43.53077" lon="5.54818">
        <ele>322.67</ele>
        <time>2014-03-02T15:27:23Z</time>
      </trkpt>
      <trkpt lat="43.53096" lon="5.5482">
        <ele>325.18</ele>
        <time>2014-03-02T15:28:05Z</time>
      </trkpt>
      <trkpt lat="43.53113" lon="5.5481">
        <ele>328.06</ele>
        <time>2014-03-02T15:28:27Z</time>
      </trkpt>
      <trkpt lat="43.5313" lon="5.54802">
        <ele>329.91</ele>
        <time>2014-03-02T15:28:50Z</time>
      </trkpt>
      <trkpt lat="43.53148" lon="5.54797">
        <ele>332.59</ele>
        <time>2014-03-02T15:29:05Z</time>
      </trkpt>
      <trkpt lat="43.53166" lon="5.548">
        <ele>338.31</ele>
        <time>2014-03-02T15:29:35Z</time>
      </trkpt>
      <trkpt lat="43.53184" lon="5.54798">
        <ele>340.81</ele>
        <time>2014-03-02T15:29:54Z</time>
      </trkpt>
      <trkpt lat="43.53201" lon="5.54786">
        <ele>343.81</ele>
        <time>2014-03-02T15:30:13Z</time>
      </trkpt>
      <trkpt lat="43.53209" lon="5.54763">
        <ele>348.9</ele>
        <time>2014-03-02T15:30:40Z</time>
      </trkpt>
      <trkpt lat="43.53205" lon="5.54738">
        <ele>352.77</ele>
        <time>2014-03-02T15:31:07Z</time>
      </trkpt>
      <trkpt lat="43.53197" lon="5.54716">
        <ele>355.3</ele>
        <time>2014-03-02T15:31:22Z</time>
      </trkpt>
      <trkpt lat="43.53189" lon="5.54692">
        <ele>357.9</ele>
        <time>2014-03-02T15:31:40Z</time>
      </trkpt>
      <trkpt lat="43.53189" lon="5.54666">
        <ele>361.5</ele>
        <time>2014-03-02T15:31:57Z</time>
      </trkpt>
      <trkpt lat="43.53186" lon="5.54641">
        <ele>365.19</ele>
        <time>2014-03-02T15:32:14Z</time>
      </trkpt>
      <trkpt lat="43.53185" lon="5.54616">
        <ele>369.89</ele>
        <time>2014-03-02T15:32:31Z</time>
      </trkpt>
      <trkpt lat="43.53182" lon="5.5459">
        <ele>373.15</ele>
        <time>2014-03-02T15:32:50Z</time>
      </trkpt>
      <trkpt lat="43.53181" lon="5.54565">
        <ele>375.5</ele>
        <time>2014-03-02T15:33:05Z</time>
      </trkpt>
      <trkpt lat="43.53181" lon="5.5454">
        <ele>377.68</ele>
        <time>2014-03-02T15:33:23Z</time>
      </trkpt>
      <trkpt lat="43.53171" lon="5.54518">
        <ele>379.66</ele>
        <time>2014-03-02T15:33:43Z</time>
      </trkpt>
      <trkpt lat="43.53168" lon="5.54493">
        <ele>383.7</ele>
        <time>2014-03-02T15:34:16Z</time>
      </trkpt>
      <trkpt lat="43.53174" lon="5.54469">
        <ele>384.13</ele>
        <time>2014-03-02T15:34:34Z</time>
      </trkpt>
      <trkpt lat="43.53184" lon="5.54447">
        <ele>384.01</ele>
        <time>2014-03-02T15:34:48Z</time>
      </trkpt>
      <trkpt lat="43.53198" lon="5.54431">
        <ele>384.76</ele>
        <time>2014-03-02T15:35:00Z</time>
      </trkpt>
      <trkpt lat="43.53214" lon="5.54419">
        <ele>385.55</ele>
        <time>2014-03-02T15:35:16Z</time>
      </trkpt>
      <trkpt lat="43.53227" lon="5.54401">
        <ele>386.41</ele>
        <time>2014-03-02T15:35:34Z</time>
      </trkpt>
      <trkpt lat="43.53241" lon="5.54383">
        <ele>387.55</ele>
        <time>2014-03-02T15:35:48Z</time>
      </trkpt>
      <trkpt lat="43.53255" lon="5.54367">
        <ele>388.97</ele>
        <time>2014-03-02T15:36:03Z</time>
      </trkpt>
      <trkpt lat="43.53269" lon="5.5435">
        <ele>389.92</ele>
        <time>2014-03-02T15:36:20Z</time>
      </trkpt>
      <trkpt lat="43.53277" lon="5.54327">
        <ele>391.45</ele>
        <time>2014-03-02T15:36:36Z</time>
      </trkpt>
      <trkpt lat="43.53283" lon="5.54303">
        <ele>392.66</ele>
        <time>2014-03-02T15:36:55Z</time>
      </trkpt>
      <trkpt lat="43.53285" lon="5.54277">
        <ele>394.57</ele>
        <time>2014-03-02T15:37:13Z</time>
      </trkpt>
      <trkpt lat="43.53295" lon="5.54255">
        <ele>396.03</ele>
        <time>2014-03-02T15:37:29Z</time>
      </trkpt>
      <trkpt lat="43.53308" lon="5.54237">
        <ele>397.74</ele>
        <time>2014-03-02T15:37:48Z</time>
      </trkpt>
      <trkpt lat="43.53314" lon="5.54214">
        <ele>399.24</ele>
        <time>2014-03-02T15:38:04Z</time>
      </trkpt>
      <trkpt lat="43.53333" lon="5.54207">
        <ele>402.67</ele>
        <time>2014-03-02T15:38:24Z</time>
      </trkpt>
      <trkpt lat="43.53349" lon="5.54193">
        <ele>404.79</ele>
        <time>2014-03-02T15:38:41Z</time>
      </trkpt>
      <trkpt lat="43.53352" lon="5.54169">
        <ele>406.46</ele>
        <time>2014-03-02T15:39:00Z</time>
      </trkpt>
      <trkpt lat="43.53348" lon="5.54144">
        <ele>407.34</ele>
        <time>2014-03-02T15:39:17Z</time>
      </trkpt>
      <trkpt lat="43.53348" lon="5.54118">
        <ele>409.34</ele>
        <time>2014-03-02T15:39:36Z</time>
      </trkpt>
      <trkpt lat="43.53362" lon="5.54101">
        <ele>411.25</ele>
        <time>2014-03-02T15:39:52Z</time>
      </trkpt>
      <trkpt lat="43.53378" lon="5.54087">
        <ele>412.87</ele>
        <time>2014-03-02T15:40:06Z</time>
      </trkpt>
      <trkpt lat="43.53396" lon="5.54087">
        <ele>414.9</ele>
        <time>2014-03-02T15:40:20Z</time>
      </trkpt>
      <trkpt lat="43.53414" lon="5.54079">
        <ele>415.78</ele>
        <time>2014-03-02T15:40:35Z</time>
      </trkpt>
      <trkpt lat="43.53428" lon="5.54063">
        <ele>417.82</ele>
        <time>2014-03-02T15:40:52Z</time>
      </trkpt>
      <trkpt lat="43.53439" lon="5.54043">
        <ele>419.89</ele>
        <time>2014-03-02T15:41:07Z</time>
      </trkpt>
      <trkpt lat="43.53445" lon="5.5402">
        <ele>420.82</ele>
        <time>2014-03-02T15:41:20Z</time>
      </trkpt>
      <trkpt lat="43.53454" lon="5.53997">
        <ele>420.75</ele>
        <time>2014-03-02T15:41:34Z</time>
      </trkpt>
      <trkpt lat="43.53465" lon="5.53976">
        <ele>422.42</ele>
        <time>2014-03-02T15:41:53Z</time>
      </trkpt>
      <trkpt lat="43.53473" lon="5.53954">
        <ele>422.61</ele>
        <time>2014-03-02T15:42:06Z</time>
      </trkpt>
      <trkpt lat="43.53483" lon="5.53931">
        <ele>423.2</ele>
        <time>2014-03-02T15:42:20Z</time>
      </trkpt>
      <trkpt lat="43.53486" lon="5.53907">
        <ele>423.65</ele>
        <time>2014-03-02T15:42:39Z</time>
      </trkpt>
      <trkpt lat="43.53482" lon="5.53881">
        <ele>423.09</ele>
        <time>2014-03-02T15:42:52Z</time>
      </trkpt>
      <trkpt lat="43.53483" lon="5.53856">
        <ele>423.31</ele>
        <time>2014-03-02T15:43:06Z</time>
      </trkpt>
      <trkpt lat="43.53486" lon="5.53831">
        <ele>423.1</ele>
        <time>2014-03-02T15:43:21Z</time>
      </trkpt>
      <trkpt lat="43.53489" lon="5.53805">
        <ele>423.38</ele>
        <time>2014-03-02T15:43:37Z</time>
      </trkpt>
      <trkpt lat="43.53494" lon="5.53781">
        <ele>422.85</ele>
        <time>2014-03-02T15:43:52Z</time>
      </trkpt>
      <trkpt lat="43.53502" lon="5.53757">
        <ele>422.61</ele>
        <time>2014-03-02T15:44:06Z</time>
      </trkpt>
      <trkpt lat="43.53512" lon="5.53735">
        <ele>423.22</ele>
        <time>2014-03-02T15:44:21Z</time>
      </trkpt>
      <trkpt lat="43.53525" lon="5.53716">
        <ele>423.17</ele>
        <time>2014-03-02T15:44:41Z</time>
      </trkpt>
      <trkpt lat="43.53536" lon="5.53695">
        <ele>423.11</ele>
        <time>2014-03-02T15:44:54Z</time>
      </trkpt>
      <trkpt lat="43.53548" lon="5.53675">
        <ele>422.25</ele>
        <time>2014-03-02T15:45:10Z</time>
      </trkpt>
      <trkpt lat="43.53562" lon="5.53659">
        <ele>421.79</ele>
        <time>2014-03-02T15:45:26Z</time>
      </trkpt>
      <trkpt lat="43.53578" lon="5.53646">
        <ele>420.48</ele>
        <time>2014-03-02T15:45:40Z</time>
      </trkpt>
      <trkpt lat="43.53596" lon="5.53641">
        <ele>419.59</ele>
        <time>2014-03-02T15:45:54Z</time>
      </trkpt>
      <trkpt lat="43.53612" lon="5.53626">
        <ele>419.62</ele>
        <time>2014-03-02T15:46:09Z</time>
      </trkpt>
      <trkpt lat="43.53628" lon="5.53612">
        <ele>419.15</ele>
        <time>2014-03-02T15:46:24Z</time>
      </trkpt>
      <trkpt lat="43.53643" lon="5.53599">
        <ele>418.91</ele>
        <time>2014-03-02T15:46:38Z</time>
      </trkpt>
      <trkpt lat="43.53659" lon="5.53583">
        <ele>418.48</ele>
        <time>2014-03-02T15:46:53Z</time>
      </trkpt>
      <trkpt lat="43.53673" lon="5.53566">
        <ele>418.59</ele>
        <time>2014-03-02T15:47:07Z</time>
      </trkpt>
      <trkpt lat="43.53688" lon="5.5355">
        <ele>418.51</ele>
        <time>2014-03-02T15:47:22Z</time>
      </trkpt>
      <trkpt lat="43.53704" lon="5.53538">
        <ele>418.25</ele>
        <time>2014-03-02T15:47:36Z</time>
      </trkpt>
      <trkpt lat="43.5372" lon="5.53524">
        <ele>417.61</ele>
        <time>2014-03-02T15:47:51Z</time>
      </trkpt>
      <trkpt lat="43.53738" lon="5.53513">
        <ele>417.46</ele>
        <time>2014-03-02T15:48:04Z</time>
      </trkpt>
      <trkpt lat="43.53757" lon="5.53512">
        <ele>417.43</ele>
        <time>2014-03-02T15:48:16Z</time>
      </trkpt>
      <trkpt lat="43.53775" lon="5.5352">
        <ele>417.72</ele>
        <time>2014-03-02T15:48:29Z</time>
      </trkpt>
      <trkpt lat="43.53791" lon="5.53536">
        <ele>418.51</ele>
        <time>2014-03-02T15:48:45Z</time>
      </trkpt>
      <trkpt lat="43.53807" lon="5.5355">
        <ele>418.28</ele>
        <time>2014-03-02T15:49:00Z</time>
      </trkpt>
      <trkpt lat="43.53821" lon="5.53567">
        <ele>417.18</ele>
        <time>2014-03-02T15:49:16Z</time>
      </trkpt>
      <trkpt lat="43.53837" lon="5.53581">
        <ele>415.88</ele>
        <time>2014-03-02T15:49:32Z</time>
      </trkpt>
      <trkpt lat="43.53856" lon="5.53582">
        <ele>414.73</ele>
        <time>2014-03-02T15:49:47Z</time>
      </trkpt>
      <trkpt lat="43.53873" lon="5.53569">
        <ele>413.53</ele>
        <time>2014-03-02T15:50:05Z</time>
      </trkpt>
      <trkpt lat="43.5389" lon="5.5356">
        <ele>411.96</ele>
        <time>2014-03-02T15:50:23Z</time>
      </trkpt>
      <trkpt lat="43.53909" lon="5.53556">
        <ele>409.69</ele>
        <time>2014-03-02T15:50:37Z</time>
      </trkpt>
      <trkpt lat="43.53925" lon="5.53572">
        <ele>408.26</ele>
        <time>2014-03-02T15:50:53Z</time>
      </trkpt>
      <trkpt lat="43.53935" lon="5.53593">
        <ele>406.13</ele>
        <time>2014-03-02T15:51:11Z</time>
      </trkpt>
      <trkpt lat="43.53952" lon="5.53607">
        <ele>405.45</ele>
        <time>2014-03-02T15:51:25Z</time>
      </trkpt>
      <trkpt lat="43.53967" lon="5.53621">
        <ele>404.56</ele>
        <time>2014-03-02T15:51:41Z</time>
      </trkpt>
      <trkpt lat="43.53983" lon="5.53635">
        <ele>403.95</ele>
        <time>2014-03-02T15:51:56Z</time>
      </trkpt>
      <trkpt lat="43.54" lon="5.53643">
        <ele>403.1</ele>
        <time>2014-03-02T15:52:12Z</time>
      </trkpt>
      <trkpt lat="43.54018" lon="5.53646">
        <ele>401.47</ele>
        <time>2014-03-02T15:52:28Z</time>
      </trkpt>
      <trkpt lat="43.54038" lon="5.53647">
        <ele>401.37</ele>
        <time>2014-03-02T15:52:45Z</time>
      </trkpt>
      <trkpt lat="43.54056" lon="5.53643">
        <ele>400.59</ele>
        <time>2014-03-02T15:52:59Z</time>
      </trkpt>
      <trkpt lat="43.54074" lon="5.53641">
        <ele>399.75</ele>
        <time>2014-03-02T15:53:12Z</time>
      </trkpt>
      <trkpt lat="43.54092" lon="5.53634">
        <ele>398.98</ele>
        <time>2014-03-02T15:53:29Z</time>
      </trkpt>
      <trkpt lat="43.54108" lon="5.53621">
        <ele>398.54</ele>
        <time>2014-03-02T15:53:44Z</time>
      </trkpt>
      <trkpt lat="43.54121" lon="5.53603">
        <ele>398.58</ele>
        <time>2014-03-02T15:54:00Z</time>
      </trkpt>
      <trkpt lat="43.54133" lon="5.53584">
        <ele>398.55</ele>
        <time>2014-03-02T15:54:15Z</time>
      </trkpt>
      <trkpt lat="43.54148" lon="5.53566">
        <ele>399.26</ele>
        <time>2014-03-02T15:54:30Z</time>
      </trkpt>
      <trkpt lat="43.54152" lon="5.53541">
        <ele>399.31</ele>
        <time>2014-03-02T15:54:49Z</time>
      </trkpt>
      <trkpt lat="43.54148" lon="5.53517">
        <ele>399.49</ele>
        <time>2014-03-02T15:55:06Z</time>
      </trkpt>
      <trkpt lat="43.5414" lon="5.53493">
        <ele>400.01</ele>
        <time>2014-03-02T15:55:23Z</time>
      </trkpt>
      <trkpt lat="43.54134" lon="5.53469">
        <ele>399.91</ele>
        <time>2014-03-02T15:55:40Z</time>
      </trkpt>
      <trkpt lat="43.54134" lon="5.53443">
        <ele>401.01</ele>
        <time>2014-03-02T15:55:58Z</time>
      </trkpt>
      <trkpt lat="43.54143" lon="5.5342">
        <ele>401.25</ele>
        <time>2014-03-02T15:56:15Z</time>
      </trkpt>
      <trkpt lat="43.54155" lon="5.534">
        <ele>402.04</ele>
        <time>2014-03-02T15:56:32Z</time>
      </trkpt>
      <trkpt lat="43.54162" lon="5.53376">
        <ele>402.84</ele>
        <time>2014-03-02T15:56:49Z</time>
      </trkpt>
      <trkpt lat="43.54161" lon="5.53351">
        <ele>403.23</ele>
        <time>2014-03-02T15:57:02Z</time>
      </trkpt>
      <trkpt lat="43.54162" lon="5.53324">
        <ele>402.8</ele>
        <time>2014-03-02T15:57:19Z</time>
      </trkpt>
      <trkpt lat="43.54162" lon="5.53299">
        <ele>401.72</ele>
        <time>2014-03-02T15:57:33Z</time>
      </trkpt>
      <trkpt lat="43.54157" lon="5.53275">
        <ele>401.6</ele>
        <time>2014-03-02T15:57:49Z</time>
      </trkpt>
      <trkpt lat="43.54145" lon="5.53253">
        <ele>401.78</ele>
        <time>2014-03-02T15:58:07Z</time>
      </trkpt>
      <trkpt lat="43.54133" lon="5.53235">
        <ele>401.75</ele>
        <time>2014-03-02T15:58:22Z</time>
      </trkpt>
      <trkpt lat="43.54119" lon="5.53217">
        <ele>401.85</ele>
        <time>2014-03-02T15:58:38Z</time>
      </trkpt>
      <trkpt lat="43.54108" lon="5.53196">
        <ele>402.33</ele>
        <time>2014-03-02T15:58:55Z</time>
      </trkpt>
      <trkpt lat="43.54096" lon="5.53178">
        <ele>402.3</ele>
        <time>2014-03-02T15:59:10Z</time>
      </trkpt>
      <trkpt lat="43.54087" lon="5.53157">
        <ele>402.24</ele>
        <time>2014-03-02T15:59:24Z</time>
      </trkpt>
      <trkpt lat="43.54081" lon="5.53132">
        <ele>401.12</ele>
        <time>2014-03-02T15:59:40Z</time>
      </trkpt>
    </trkseg>
  </trk>
</gpx>